South Bend Regional Airport
KSBN : now visible

Airfield :











YOU CAN JOIN US ON...

 
LOGIN :

Register | Disclaimer

   EN    FR    IT 

 









Legend :    VFR   Marginal VFR   IFR   Intensive IFR   Very Intensive IFR
Visi :
Ceiling :
>= 8 km
>= 3000ft
5 to 8 km
1000 to 3000 ft
1500m to 5 km
500 to 1000 ft
800 to 1500m
200 to 500 ft
< 800m
< 200 ft
Symbols :   Thunderstorms  Fog  Heavy snow  Heavy precipitations  Wind > 20 kt






- Airport Elevation : 799 ft
- IATA code : SBN


KSBN - South Bend Regional

CURRENT METAR :
  • 021554Z 32010KT 10SM CLR 26/13 A3007 RMK AO2 SLP178 T02560128

EXPIRED METARs :
  • 021454Z 30005KT 10SM CLR 24/15 A3006 RMK AO2 SLP175 T02440150 53006
  • 020254Z 00000KT 10SM FEW036 BKN120 19/17 A3000 RMK AO2 SLP153 T01890172 53008
  • 021354Z 30005KT 10SM CLR 23/17 A3005 RMK AO2 SLP172 T02280167

TAF KSBN
Valid from the 02 at 12:00 until the 03 at 12:00 UTC


021120Z 0212/0312 26004KT P6SM SCT001
FM021430 33008KT P6SM SCT100
FM030100 00000KT P6SM SCT100
KZAU FIR / North America



MET'MAP, your aeronautical weather chart ! - Copyright ORBIFLY December 2007 - Disclaimer

ORBIFLY MET'MAP TEAM :

Programming & Development : Alexandra Zaïnal
Original concept : Baudouin d'Aumeries
Technical & hardware support : Manuel Goepfert
Assistance : Marc-Olivier Méhu




SOURCES & CREDITS :

   NOAA       Earth
Advisory